createdAt,value
2023-05-25T00:00:02.105Z,7.03
2023-05-25T00:02:30.907Z,11.10
2023-05-25T00:05:01.090Z,8.30
2023-05-25T00:07:31.009Z,14.80
2023-05-25T00:09:59.656Z,7.18
2023-05-25T00:12:28.235Z,11.23
2023-05-25T00:14:56.965Z,12.38
2023-05-25T00:17:25.538Z,12.82
2023-05-25T00:19:58.334Z,9.00
2023-05-25T00:22:29.046Z,11.07
2023-05-25T00:24:58.972Z,10.85
2023-05-25T00:27:27.569Z,13.32
2023-05-25T00:29:56.449Z,11.55
2023-05-25T00:32:24.992Z,9.00
2023-05-25T00:34:53.577Z,9.80
2023-05-25T00:37:22.212Z,14.45
2023-05-25T00:39:50.747Z,13.05
2023-05-25T00:42:21.478Z,9.35
2023-05-25T00:44:49.980Z,12.25
2023-05-25T00:47:18.688Z,10.93
2023-05-25T00:49:47.347Z,7.82
2023-05-25T00:52:16.847Z,10.40
2023-05-25T00:54:46.903Z,9.90
2023-05-25T00:57:16.830Z,9.85
2023-05-25T00:59:48.400Z,12.30
2023-05-25T01:02:19.302Z,9.90
2023-05-25T01:04:49.540Z,14.95
2023-05-25T01:07:20.077Z,11.70
2023-05-25T01:09:48.857Z,9.98
2023-05-25T01:12:17.660Z,9.75
2023-05-25T01:14:48.567Z,9.52
2023-05-25T01:17:18.228Z,12.95
2023-05-25T01:19:54.789Z,13.30
2023-05-25T01:22:34.593Z,14.15
2023-05-25T01:25:05.509Z,10.63
2023-05-25T01:27:39.539Z,9.27
2023-05-25T01:30:09.730Z,11.43
2023-05-25T01:32:38.508Z,11.77
2023-05-25T01:35:08.673Z,13.20
2023-05-25T01:37:39.918Z,12.73
2023-05-25T01:40:09.645Z,11.20
2023-05-25T01:42:38.129Z,11.35
2023-05-25T01:45:07.594Z,10.48
2023-05-25T01:47:43.154Z,10.23
2023-05-25T01:50:16.529Z,7.10
2023-05-25T01:52:49.852Z,10.95
2023-05-25T01:55:20.304Z,11.75
2023-05-25T01:57:58.062Z,12.10
2023-05-25T02:00:27.654Z,9.23
2023-05-25T02:02:56.472Z,14.98
2023-05-25T02:05:25.223Z,10.55
2023-05-25T02:07:55.268Z,8.20
2023-05-25T02:10:23.751Z,11.68
2023-05-25T02:12:52.387Z,13.60
2023-05-25T02:15:20.988Z,10.48
2023-05-25T02:17:49.812Z,12.90
2023-05-25T02:20:18.353Z,9.88
2023-05-25T02:22:47.079Z,11.35
2023-05-25T02:25:17.081Z,11.80
2023-05-25T02:27:45.793Z,12.85
2023-05-25T02:30:14.600Z,10.45
2023-05-25T02:32:43.328Z,10.07
2023-05-25T02:35:12.082Z,14.95
2023-05-25T02:37:40.841Z,11.00
2023-05-25T02:40:10.919Z,10.23
2023-05-25T02:42:40.882Z,13.27
2023-05-25T02:45:10.699Z,10.85
2023-05-25T02:47:39.523Z,8.65
2023-05-25T02:50:08.750Z,13.43
2023-05-25T02:52:37.279Z,6.50
2023-05-25T02:55:06.121Z,8.25
2023-05-25T02:57:34.707Z,10.23
2023-05-25T03:00:06.963Z,8.70
2023-05-25T03:02:35.608Z,12.48
2023-05-25T03:05:04.758Z,10.93
2023-05-25T03:07:33.420Z,15.52
2023-05-25T03:10:01.967Z,12.82
2023-05-25T03:12:30.528Z,11.63
2023-05-25T03:14:58.993Z,13.27
2023-05-25T03:17:29.012Z,9.77
2023-05-25T03:19:57.568Z,9.95
2023-05-25T03:22:27.203Z,12.55
2023-05-25T03:24:56.322Z,15.77
2023-05-25T03:27:24.807Z,12.60
2023-05-25T03:29:53.652Z,11.98
2023-05-25T03:32:24.265Z,9.82
2023-05-25T03:34:54.404Z,14.43
2023-05-25T03:37:22.978Z,11.93
2023-05-25T03:39:51.533Z,11.40
2023-05-25T03:42:20.042Z,10.80
2023-05-25T03:44:48.599Z,9.65
2023-05-25T03:47:19.629Z,11.63
2023-05-25T03:49:48.190Z,8.90
2023-05-25T03:52:18.132Z,11.95
2023-05-25T03:54:46.871Z,10.60
2023-05-25T03:57:15.341Z,9.32
2023-05-25T03:59:43.885Z,11.88
2023-05-25T04:02:12.650Z,10.63
2023-05-25T04:04:42.127Z,12.43
2023-05-25T04:07:11.079Z,10.60
2023-05-25T04:09:41.333Z,10.43
2023-05-25T04:12:10.065Z,12.95
2023-05-25T04:14:38.561Z,13.15
2023-05-25T04:17:07.347Z,11.27
2023-05-25T04:19:36.084Z,13.63
2023-05-25T04:22:04.992Z,10.10
2023-05-25T04:24:34.383Z,12.30
2023-05-25T04:27:04.321Z,11.98
2023-05-25T04:29:33.346Z,12.38
2023-05-25T04:32:02.804Z,12.43
2023-05-25T04:34:33.812Z,12.38
2023-05-25T04:37:05.888Z,9.25
2023-05-25T04:39:34.428Z,15.07
2023-05-25T04:42:04.747Z,17.52
2023-05-25T04:44:33.532Z,10.15
2023-05-25T04:47:02.541Z,12.52
2023-05-25T04:49:31.569Z,10.05
2023-05-25T04:52:00.394Z,13.90
2023-05-25T04:54:28.967Z,11.68
2023-05-25T04:56:58.022Z,15.40
2023-05-25T04:59:28.074Z,18.42
2023-05-25T05:01:56.670Z,11.90
2023-05-25T05:04:25.376Z,10.85
2023-05-25T05:06:56.062Z,15.52
2023-05-25T05:09:26.466Z,15.75
2023-05-25T05:11:54.920Z,14.45
2023-05-25T05:14:23.504Z,9.00
2023-05-25T05:16:53.578Z,9.70
2023-05-25T05:19:23.032Z,18.85
2023-05-25T05:21:51.594Z,13.15
2023-05-25T05:24:20.883Z,17.63
2023-05-25T05:29:24.128Z,14.65
2023-05-25T05:31:54.107Z,15.15
2023-05-25T05:34:22.806Z,16.25
2023-05-25T05:36:58.095Z,16.50
2023-05-25T05:39:27.432Z,13.00
2023-05-25T05:41:56.157Z,17.15
2023-05-25T05:44:27.915Z,14.40
2023-05-25T05:47:01.897Z,14.05
2023-05-25T05:49:31.248Z,17.23
2023-05-25T05:52:00.210Z,16.27
2023-05-25T05:54:28.833Z,13.95
2023-05-25T05:56:57.395Z,12.50
2023-05-25T05:59:26.639Z,14.35
2023-05-25T06:01:55.286Z,17.92
2023-05-25T06:04:28.925Z,15.00
2023-05-25T06:06:57.798Z,13.82
2023-05-25T06:09:26.537Z,15.13
2023-05-25T06:11:55.145Z,15.65
2023-05-25T06:14:24.476Z,15.25
2023-05-25T06:16:54.243Z,14.48
2023-05-25T06:19:23.034Z,12.02
2023-05-25T06:21:52.968Z,12.95
2023-05-25T06:24:21.491Z,20.42
2023-05-25T06:26:50.121Z,16.33
2023-05-25T06:29:18.587Z,11.98
2023-05-25T06:31:47.214Z,19.30
2023-05-25T06:34:15.923Z,16.60
2023-05-25T06:36:44.462Z,16.30
2023-05-25T06:39:14.852Z,16.45
2023-05-25T06:41:43.423Z,17.90
2023-05-25T06:44:12.048Z,15.13
2023-05-25T06:46:41.517Z,13.45
2023-05-25T06:49:10.212Z,15.85
2023-05-25T06:51:38.844Z,20.35
2023-05-25T06:54:08.578Z,14.63
2023-05-25T06:56:38.540Z,18.30
2023-05-25T06:59:07.370Z,13.82
2023-05-25T07:01:36.681Z,15.38
2023-05-25T07:04:05.370Z,14.18
2023-05-25T07:06:36.888Z,20.17
2023-05-25T07:09:05.474Z,15.30
2023-05-25T07:11:34.049Z,15.10
2023-05-25T07:14:03.968Z,11.75
2023-05-25T07:16:32.856Z,16.15
2023-05-25T07:19:01.494Z,16.08
2023-05-25T07:21:34.229Z,11.63
2023-05-25T07:24:02.903Z,12.13
2023-05-25T07:26:33.438Z,15.00
2023-05-25T07:29:02.332Z,15.23
2023-05-25T07:31:32.498Z,12.02
2023-05-25T07:34:01.215Z,11.68
2023-05-25T07:36:29.987Z,17.70
2023-05-25T07:38:58.657Z,17.25
2023-05-25T07:41:27.439Z,20.10
2023-05-25T07:43:56.165Z,14.40
2023-05-25T07:46:26.094Z,13.35
2023-05-25T07:48:58.455Z,18.45
2023-05-25T07:51:29.178Z,12.75
2023-05-25T07:53:58.530Z,13.75
2023-05-25T07:56:29.064Z,14.27
2023-05-25T07:59:00.115Z,11.85
2023-05-25T08:01:29.030Z,14.57
2023-05-25T08:03:59.071Z,13.98
2023-05-25T08:06:27.740Z,12.38
2023-05-25T08:08:56.512Z,14.27
2023-05-25T08:11:27.901Z,14.00
2023-05-25T08:13:56.548Z,12.13
2023-05-25T08:16:25.587Z,12.75
2023-05-25T08:18:54.895Z,9.68
2023-05-25T08:21:25.475Z,10.95
2023-05-25T08:23:54.510Z,10.65
2023-05-25T08:28:55.272Z,18.35
2023-05-25T08:31:24.749Z,11.57
2023-05-25T08:33:53.394Z,12.65
2023-05-25T08:36:22.797Z,13.32
2023-05-25T08:38:52.879Z,11.80
2023-05-25T08:41:23.210Z,12.88
2023-05-25T08:43:52.000Z,15.55
2023-05-25T08:46:29.428Z,14.00
2023-05-25T08:49:02.214Z,9.95
2023-05-25T08:51:32.793Z,8.70
2023-05-25T08:54:05.361Z,10.90
2023-05-25T08:56:37.136Z,14.18
2023-05-25T08:59:11.560Z,13.50
2023-05-25T09:01:45.484Z,16.42
2023-05-25T09:04:15.140Z,16.77
2023-05-25T09:06:57.127Z,15.57
2023-05-25T09:09:38.235Z,17.95
2023-05-25T09:12:07.424Z,16.35
2023-05-25T09:14:37.858Z,16.58
2023-05-25T09:17:06.823Z,15.43
2023-05-25T09:19:37.941Z,15.40
2023-05-25T09:22:15.056Z,16.05
2023-05-25T09:24:46.641Z,14.75
2023-05-25T09:27:17.865Z,15.05
2023-05-25T09:29:47.444Z,16.45
2023-05-25T09:32:16.736Z,18.17
2023-05-25T09:34:45.587Z,14.82
2023-05-25T09:37:14.799Z,18.42
2023-05-25T09:39:44.174Z,17.27
2023-05-25T09:42:14.237Z,15.65
2023-05-25T09:44:45.894Z,16.10
2023-05-25T09:47:16.920Z,14.32
2023-05-25T09:49:47.841Z,12.38
2023-05-25T09:52:17.834Z,12.35
2023-05-25T09:54:46.788Z,12.82
2023-05-25T09:57:17.481Z,15.65
2023-05-25T09:59:46.252Z,11.13
2023-05-25T10:02:15.023Z,11.38
2023-05-25T10:04:43.685Z,14.02
2023-05-25T10:07:12.402Z,12.40
2023-05-25T10:09:42.410Z,10.98
2023-05-25T10:12:11.269Z,10.60
2023-05-25T10:14:41.318Z,13.82
2023-05-25T10:17:12.280Z,10.45
2023-05-25T10:19:43.470Z,9.57
2023-05-25T10:22:15.899Z,9.85
2023-05-25T10:24:47.101Z,14.43
2023-05-25T10:27:26.192Z,9.68
2023-05-25T10:29:58.228Z,11.65
2023-05-25T10:32:27.332Z,10.77
2023-05-25T10:34:57.396Z,10.82
2023-05-25T10:37:29.135Z,9.32
2023-05-25T10:39:58.812Z,10.60
2023-05-25T10:42:29.693Z,10.18
2023-05-25T10:44:59.904Z,10.23
2023-05-25T10:47:28.700Z,8.57
2023-05-25T10:49:58.266Z,9.70
2023-05-25T10:52:29.650Z,7.88
2023-05-25T10:54:59.064Z,11.05
2023-05-25T10:57:27.784Z,12.80
2023-05-25T11:00:00.176Z,9.18
2023-05-25T11:02:32.623Z,8.50
2023-05-25T11:05:19.867Z,9.02
2023-05-25T11:07:54.499Z,9.93
2023-05-25T11:10:38.110Z,10.02
2023-05-25T11:13:21.506Z,10.82
2023-05-25T11:15:50.391Z,11.13
2023-05-25T11:18:20.329Z,8.98
2023-05-25T11:20:49.288Z,12.10
2023-05-25T11:23:28.616Z,9.90
2023-05-25T11:26:08.144Z,9.98
2023-05-25T11:28:36.793Z,8.90
2023-05-25T11:31:07.907Z,12.52
2023-05-25T11:33:38.133Z,11.60
2023-05-25T11:36:07.995Z,11.30
2023-05-25T11:38:37.627Z,7.72
2023-05-25T11:41:06.352Z,11.63
2023-05-25T11:43:36.857Z,10.73
2023-05-25T11:46:10.432Z,10.55
2023-05-25T11:48:44.717Z,9.40
2023-05-25T11:51:13.570Z,10.73
2023-05-25T11:53:46.454Z,9.48
2023-05-25T11:56:27.044Z,7.75
2023-05-25T11:59:02.881Z,8.50
2023-05-25T12:01:32.539Z,7.57
2023-05-25T12:04:10.248Z,8.80
2023-05-25T12:06:39.093Z,10.93
2023-05-25T12:09:13.558Z,8.85
2023-05-25T12:11:45.992Z,11.65
2023-05-25T12:14:14.629Z,8.60
2023-05-25T12:16:43.782Z,8.75
2023-05-25T12:19:14.227Z,7.28
2023-05-25T12:21:43.288Z,9.32
2023-05-25T12:24:16.029Z,8.35
2023-05-25T12:26:51.091Z,9.73
2023-05-25T12:29:19.905Z,7.15
2023-05-25T12:31:48.883Z,12.40
2023-05-25T12:34:19.495Z,9.88
2023-05-25T12:36:50.072Z,9.02
2023-05-25T12:39:19.197Z,9.23
2023-05-25T12:41:54.312Z,9.93
2023-05-25T12:44:25.545Z,8.93
2023-05-25T12:46:55.096Z,7.93
2023-05-25T12:49:37.951Z,8.63
2023-05-25T12:52:07.390Z,10.70
2023-05-25T12:54:36.918Z,9.27
2023-05-25T12:57:06.907Z,8.75
2023-05-25T12:59:37.787Z,9.10
2023-05-25T13:02:07.914Z,7.82
2023-05-25T13:04:38.690Z,8.00
2023-05-25T13:07:08.524Z,8.40
2023-05-25T13:09:37.787Z,10.98
2023-05-25T13:12:07.248Z,7.05
2023-05-25T13:14:36.085Z,8.13
2023-05-25T13:17:05.080Z,8.00
2023-05-25T13:19:33.804Z,6.50
2023-05-25T13:22:04.041Z,8.98
2023-05-25T13:24:32.761Z,8.07
2023-05-25T13:27:01.648Z,7.60
2023-05-25T13:29:30.288Z,7.93
2023-05-25T13:31:58.887Z,7.97
2023-05-25T13:34:27.804Z,8.30
2023-05-25T13:36:57.005Z,8.55
2023-05-25T13:39:26.948Z,6.15
2023-05-25T13:41:55.472Z,7.20
2023-05-25T13:44:24.030Z,8.38
2023-05-25T13:46:53.244Z,5.78
2023-05-25T13:49:22.244Z,7.93
2023-05-25T13:51:51.976Z,5.35
2023-05-25T13:54:21.785Z,8.15
2023-05-25T13:56:51.704Z,6.70
2023-05-25T13:59:20.223Z,8.50
2023-05-25T14:01:48.805Z,9.65
2023-05-25T14:04:17.342Z,7.57
2023-05-25T14:06:46.919Z,8.88
2023-05-25T14:09:16.245Z,10.13
2023-05-25T14:11:45.064Z,6.72
2023-05-25T14:14:29.935Z,8.18
2023-05-25T14:17:00.525Z,9.18
2023-05-25T14:19:29.445Z,10.05
2023-05-25T14:24:30.257Z,9.13
2023-05-25T14:26:59.092Z,5.20
2023-05-25T14:29:29.555Z,7.93
2023-05-25T14:31:58.799Z,7.07
2023-05-25T14:34:27.996Z,6.82
2023-05-25T14:36:57.463Z,7.00
2023-05-25T14:39:26.876Z,6.40
2023-05-25T14:41:56.314Z,11.88
2023-05-25T14:44:25.083Z,9.63
2023-05-25T14:46:55.229Z,6.70
2023-05-25T14:49:25.199Z,7.40
2023-05-25T14:51:53.983Z,8.32
2023-05-25T14:54:22.629Z,7.07
2023-05-25T14:56:51.217Z,5.55
2023-05-25T14:59:19.717Z,6.93
2023-05-25T15:01:48.702Z,5.22
2023-05-25T15:04:18.873Z,7.13
2023-05-25T15:06:47.622Z,7.68
2023-05-25T15:09:17.019Z,7.10
2023-05-25T15:11:45.622Z,5.32
2023-05-25T15:14:14.285Z,7.90
2023-05-25T15:16:43.015Z,8.02
2023-05-25T15:19:13.295Z,5.30
2023-05-25T15:21:45.277Z,5.72
2023-05-25T15:24:16.715Z,6.85
2023-05-25T15:26:45.591Z,4.35
2023-05-25T15:29:14.356Z,6.90
2023-05-25T15:31:43.016Z,6.72
2023-05-25T15:34:11.988Z,5.47
2023-05-25T15:36:40.604Z,5.88
2023-05-25T15:39:11.580Z,6.88
2023-05-25T15:41:40.249Z,5.13
2023-05-25T15:44:12.627Z,10.27
2023-05-25T15:46:41.854Z,6.60
2023-05-25T15:49:12.003Z,8.32
2023-05-25T15:51:41.977Z,5.72
2023-05-25T15:54:14.623Z,8.80
2023-05-25T15:56:43.618Z,5.63
2023-05-25T15:59:13.470Z,6.97
2023-05-25T16:01:42.403Z,7.40
2023-05-25T16:04:11.130Z,6.60
2023-05-25T16:06:41.544Z,7.95
2023-05-25T16:09:10.132Z,9.98
2023-05-25T16:11:40.300Z,7.20
2023-05-25T16:14:08.939Z,7.30
2023-05-25T16:16:39.176Z,8.25
2023-05-25T16:19:07.906Z,8.95
2023-05-25T16:21:38.357Z,7.78
2023-05-25T16:24:07.300Z,9.95
2023-05-25T16:26:36.493Z,8.95
2023-05-25T16:29:06.998Z,7.50
2023-05-25T16:31:39.732Z,8.07
2023-05-25T16:34:08.616Z,5.95
2023-05-25T16:36:37.450Z,6.75
2023-05-25T16:39:06.243Z,6.80
2023-05-25T16:41:35.381Z,8.20
2023-05-25T16:44:04.143Z,6.68
2023-05-25T16:46:34.917Z,8.77
2023-05-25T16:49:03.966Z,6.38
2023-05-25T16:51:32.724Z,7.60
2023-05-25T16:54:01.894Z,7.72
2023-05-25T16:56:31.464Z,5.57
2023-05-25T16:59:00.315Z,8.98
2023-05-25T17:01:29.893Z,6.88
2023-05-25T17:04:00.262Z,7.95
2023-05-25T17:06:29.533Z,8.15
2023-05-25T17:08:58.387Z,5.78
2023-05-25T17:11:28.280Z,5.70
2023-05-25T17:13:57.685Z,8.55
2023-05-25T17:16:26.588Z,8.63
2023-05-25T17:18:55.885Z,10.30
2023-05-25T17:21:27.204Z,7.00
2023-05-25T17:23:56.285Z,7.38
2023-05-25T17:26:25.166Z,7.88
2023-05-25T17:28:54.367Z,8.45
2023-05-25T17:31:23.535Z,11.30
2023-05-25T17:33:52.464Z,9.88
2023-05-25T17:36:23.030Z,9.40
2023-05-25T17:38:53.605Z,9.15
2023-05-25T17:41:23.040Z,9.82
2023-05-25T17:43:51.934Z,10.50
2023-05-25T17:46:21.095Z,9.50
2023-05-25T17:48:50.268Z,9.65
2023-05-25T17:51:20.247Z,9.02
2023-05-25T17:53:49.112Z,7.65
2023-05-25T17:56:19.362Z,11.27
2023-05-25T17:58:48.537Z,12.63
2023-05-25T18:01:17.756Z,7.38
2023-05-25T18:03:47.070Z,10.60
2023-05-25T18:06:15.984Z,11.55
2023-05-25T18:08:44.815Z,10.60
2023-05-25T18:11:13.741Z,7.90
2023-05-25T18:13:43.830Z,7.20
2023-05-25T18:16:12.754Z,11.20
2023-05-25T18:18:41.571Z,9.00
2023-05-25T18:21:10.267Z,14.07
2023-05-25T18:23:39.017Z,11.05
2023-05-25T18:26:08.018Z,13.38
2023-05-25T18:28:36.833Z,10.32
2023-05-25T18:31:08.821Z,11.00
2023-05-25T18:33:37.563Z,11.70
2023-05-25T18:36:06.441Z,11.90
2023-05-25T18:38:35.286Z,12.25
2023-05-25T18:41:04.287Z,10.98
2023-05-25T18:43:33.057Z,10.88
2023-05-25T18:46:01.758Z,9.68
2023-05-25T18:48:32.503Z,15.13
2023-05-25T18:51:03.010Z,8.63
2023-05-25T18:53:32.285Z,17.42
2023-05-25T18:56:01.131Z,13.95
2023-05-25T18:58:29.975Z,9.35
2023-05-25T19:00:58.664Z,11.85
2023-05-25T19:03:27.902Z,12.55
2023-05-25T19:05:58.408Z,15.15
2023-05-25T19:08:27.143Z,10.35
2023-05-25T19:10:56.022Z,10.93
2023-05-25T19:13:24.920Z,14.82
2023-05-25T19:15:53.735Z,15.15
2023-05-25T19:18:22.749Z,11.70
2023-05-25T19:20:51.975Z,14.02
2023-05-25T19:23:22.320Z,10.73
2023-05-25T19:25:51.203Z,12.15
2023-05-25T19:28:20.033Z,13.48
2023-05-25T19:30:49.249Z,12.98
2023-05-25T19:33:18.351Z,9.63
2023-05-25T19:35:47.809Z,13.27
2023-05-25T19:38:17.039Z,10.98
2023-05-25T19:40:49.469Z,10.32
2023-05-25T19:43:18.104Z,10.30
2023-05-25T19:45:47.006Z,13.50
2023-05-25T19:48:17.235Z,16.80
2023-05-25T19:50:46.788Z,8.45
2023-05-25T19:53:15.508Z,10.65
2023-05-25T19:55:44.433Z,8.98
2023-05-25T19:58:14.626Z,13.10
2023-05-25T20:00:43.370Z,11.30
2023-05-25T20:03:12.564Z,13.57
2023-05-25T20:05:41.581Z,15.15
2023-05-25T20:08:10.378Z,12.43
2023-05-25T20:10:39.705Z,11.02
2023-05-25T20:13:09.334Z,17.60
2023-05-25T20:15:39.692Z,14.27
2023-05-25T20:18:08.567Z,18.73
2023-05-25T20:20:38.743Z,14.88
2023-05-25T20:23:07.368Z,17.33
2023-05-25T20:25:36.406Z,16.85
2023-05-25T20:28:06.040Z,17.00
2023-05-25T20:30:34.785Z,18.48
2023-05-25T20:33:07.413Z,18.27
2023-05-25T20:35:38.419Z,15.18
2023-05-25T20:38:07.224Z,16.38
2023-05-25T20:40:36.593Z,17.60
2023-05-25T20:43:05.310Z,18.52
2023-05-25T20:45:34.502Z,21.73
2023-05-25T20:48:04.039Z,15.68
2023-05-25T20:50:34.230Z,17.48
2023-05-25T20:53:02.839Z,12.82
2023-05-25T20:55:31.708Z,19.38
2023-05-25T20:58:01.344Z,23.67
2023-05-25T21:00:30.137Z,19.65
2023-05-25T21:02:58.916Z,18.77
2023-05-25T21:05:27.587Z,14.95
2023-05-25T21:07:58.474Z,17.25
2023-05-25T21:10:27.111Z,16.23
2023-05-25T21:12:55.806Z,16.27
2023-05-25T21:15:25.112Z,18.08
2023-05-25T21:17:54.739Z,16.83
2023-05-25T21:20:23.563Z,18.15
2023-05-25T21:22:52.183Z,20.85
2023-05-25T21:25:22.925Z,21.70
2023-05-25T21:27:52.203Z,21.20
2023-05-25T21:30:21.200Z,21.80
2023-05-25T21:32:50.098Z,18.42
2023-05-25T21:35:19.659Z,18.30
2023-05-25T21:37:48.241Z,15.00
2023-05-25T21:40:17.182Z,22.40
2023-05-25T21:42:49.260Z,22.75
2023-05-25T21:45:19.638Z,20.08
2023-05-25T21:47:48.632Z,16.65
2023-05-25T21:50:17.560Z,14.05
2023-05-25T21:52:46.418Z,22.98
2023-05-25T21:55:15.123Z,16.92
2023-05-25T21:57:44.018Z,23.35
2023-05-25T22:00:15.131Z,16.05
2023-05-25T22:02:44.014Z,17.92
2023-05-25T22:05:12.607Z,19.80
2023-05-25T22:07:41.822Z,18.13
2023-05-25T22:10:10.858Z,16.58
2023-05-25T22:12:39.474Z,17.83
2023-05-25T22:15:08.819Z,17.02
2023-05-25T22:17:38.829Z,14.98
2023-05-25T22:20:08.586Z,17.80
2023-05-25T22:22:37.684Z,19.00
2023-05-25T22:27:27.729Z,18.70
2023-05-25T22:29:56.257Z,20.10
2023-05-25T22:32:25.024Z,27.15
2023-05-25T22:34:53.521Z,15.65
2023-05-25T22:37:22.729Z,17.77
2023-05-25T22:39:51.373Z,21.65
2023-05-25T22:42:20.120Z,16.35
2023-05-25T22:44:51.327Z,19.90
2023-05-25T22:47:20.117Z,21.30
2023-05-25T22:49:48.872Z,19.05
2023-05-25T22:52:17.739Z,22.70
2023-05-25T22:54:46.261Z,16.55
2023-05-25T22:57:14.754Z,18.88
2023-05-25T22:59:43.493Z,21.10
2023-05-25T23:02:13.892Z,21.55
2023-05-25T23:04:42.743Z,16.85
2023-05-25T23:07:11.443Z,19.27
2023-05-25T23:09:39.998Z,17.17
2023-05-25T23:12:08.689Z,18.10
2023-05-25T23:14:37.247Z,21.33
2023-05-25T23:17:07.314Z,17.75
2023-05-25T23:19:38.793Z,14.10
2023-05-25T23:22:07.356Z,18.65
2023-05-25T23:24:36.529Z,19.95
2023-05-25T23:27:06.681Z,21.90
2023-05-25T23:29:35.311Z,21.33
2023-05-25T23:32:04.015Z,18.00
2023-05-25T23:34:32.672Z,14.85
2023-05-25T23:37:06.364Z,19.70
2023-05-25T23:39:35.082Z,18.55
2023-05-25T23:42:03.759Z,18.80
2023-05-25T23:44:32.208Z,15.27
2023-05-25T23:47:01.260Z,19.60
2023-05-25T23:49:29.700Z,16.70
2023-05-25T23:51:58.241Z,12.35
2023-05-25T23:54:28.314Z,11.38
2023-05-25T23:56:56.836Z,20.20
2023-05-25T23:59:25.357Z,18.25
